createdAt,value
2018-01-21T00:03:24.640Z,23.40
2018-01-21T00:08:29.062Z,22.83
2018-01-21T00:13:32.908Z,24.77
2018-01-21T00:18:37.128Z,25.00
2018-01-21T00:23:40.607Z,26.60
2018-01-21T00:28:43.700Z,28.20
2018-01-21T00:33:48.295Z,28.30
2018-01-21T00:38:52.727Z,28.57
2018-01-21T00:43:55.811Z,27.97
2018-01-21T00:48:58.904Z,27.80
2018-01-21T00:54:03.354Z,26.37
2018-01-21T00:59:06.819Z,26.67
2018-01-21T01:04:11.262Z,25.80
2018-01-21T01:09:15.704Z,24.67
2018-01-21T01:14:18.781Z,27.33
2018-01-21T01:19:23.229Z,28.27
2018-01-21T01:24:26.316Z,26.40
2018-01-21T01:29:30.750Z,25.50
2018-01-21T01:34:34.966Z,25.53
2018-01-21T01:39:39.396Z,28.57
2018-01-21T01:44:42.875Z,26.43
2018-01-21T01:49:47.311Z,25.37
2018-01-21T01:54:50.393Z,25.23
2018-01-21T01:59:54.242Z,23.00
2018-01-21T02:04:58.680Z,24.40
2018-01-21T02:10:01.763Z,23.42
2018-01-21T02:15:06.387Z,24.47
2018-01-21T02:25:20.533Z,20.93
2018-01-21T02:30:23.655Z,21.20
2018-01-21T02:35:28.238Z,21.03
2018-01-21T02:40:31.336Z,20.90
2018-01-21T02:45:35.771Z,16.10
2018-01-21T02:50:40.223Z,16.83
2018-01-21T02:55:44.667Z,15.73
2018-01-21T03:00:49.099Z,15.03
2018-01-21T03:05:52.949Z,17.37
2018-01-21T03:10:57.383Z,18.93
2018-01-21T03:16:01.817Z,19.83
2018-01-21T03:21:06.263Z,20.47
2018-01-21T03:26:10.697Z,19.63
2018-01-21T03:31:14.540Z,19.47
2018-01-21T03:36:18.973Z,18.90
2018-01-21T03:41:22.458Z,19.03
2018-01-21T03:46:26.307Z,15.60
2018-01-21T03:51:29.805Z,16.77
2018-01-21T03:56:32.901Z,16.60
2018-01-21T04:01:36.403Z,18.10
2018-01-21T04:06:40.840Z,19.03
2018-01-21T04:11:45.283Z,18.33
2018-01-21T04:16:49.742Z,19.07
2018-01-21T04:22:01.970Z,16.20
2018-01-21T04:27:06.408Z,14.60
2018-01-21T04:32:10.261Z,12.70
2018-01-21T04:37:14.137Z,11.57
2018-01-21T04:42:18.750Z,12.45
2018-01-21T04:47:21.844Z,12.17
2018-01-21T04:52:26.292Z,12.57
2018-01-21T04:57:30.748Z,13.43
2018-01-21T05:02:34.969Z,14.80
2018-01-21T05:07:39.565Z,15.67
2018-01-21T05:12:43.408Z,16.67
2018-01-21T05:17:46.892Z,16.40
2018-01-21T05:22:51.337Z,17.60
2018-01-21T05:27:55.931Z,18.27
2018-01-21T05:33:00.378Z,18.53
2018-01-21T05:38:04.824Z,21.13
2018-01-21T05:43:08.677Z,22.53
2018-01-21T05:48:12.172Z,23.20
2018-01-21T05:53:16.764Z,22.92
2018-01-21T05:58:21.211Z,22.63
2018-01-21T06:03:24.301Z,22.73
2018-01-21T06:08:28.740Z,21.37
2018-01-21T06:13:33.174Z,21.47
2018-01-21T06:18:37.030Z,21.43
2018-01-21T06:23:41.260Z,20.20
2018-01-21T06:28:45.711Z,20.73
2018-01-21T06:33:49.184Z,20.07
2018-01-21T06:38:52.691Z,20.07
2018-01-21T06:43:57.112Z,22.07
2018-01-21T06:49:01.565Z,22.42
2018-01-21T06:54:04.660Z,23.20
2018-01-21T06:59:08.138Z,20.73
2018-01-21T07:04:11.641Z,21.23
2018-01-21T07:09:14.732Z,20.53
2018-01-21T07:14:18.225Z,20.83
2018-01-21T07:19:22.084Z,20.80
2018-01-21T07:24:26.541Z,19.73
2018-01-21T07:29:30.396Z,22.93
2018-01-21T07:34:34.631Z,17.75
2018-01-21T07:39:38.265Z,18.95
2018-01-21T07:44:42.300Z,18.77
2018-01-21T07:49:46.752Z,19.00
2018-01-21T07:54:51.203Z,19.17
2018-01-21T07:59:54.684Z,20.10
2018-01-21T08:04:58.537Z,18.07
2018-01-21T08:10:02.756Z,17.47
2018-01-21T08:15:05.856Z,17.50
2018-01-21T08:20:09.718Z,17.00
2018-01-21T08:25:12.813Z,15.90
2018-01-21T08:30:16.661Z,14.43
2018-01-21T08:35:25.459Z,13.10
2018-01-21T08:40:34.106Z,13.50
2018-01-21T08:45:43.764Z,13.73
2018-01-21T08:50:48.200Z,12.60
2018-01-21T08:55:52.640Z,12.57
2018-01-21T09:00:56.860Z,13.30
2018-01-21T09:06:01.083Z,12.03
2018-01-21T09:11:04.591Z,11.53
2018-01-21T09:16:08.790Z,11.30
2018-01-21T09:21:13.233Z,10.70
2018-01-21T09:26:17.664Z,10.67
2018-01-21T09:31:22.105Z,11.17
2018-01-21T09:36:25.192Z,11.18
2018-01-21T09:41:29.403Z,11.60
2018-01-21T09:46:33.316Z,11.10
2018-01-21T09:51:37.182Z,10.63
2018-01-21T09:56:41.093Z,11.00
2018-01-21T10:01:44.183Z,10.63
2018-01-21T10:06:48.032Z,10.33
2018-01-21T10:11:52.615Z,10.87
2018-01-21T10:16:55.703Z,10.80
2018-01-21T10:21:58.809Z,10.83
2018-01-21T10:27:01.888Z,11.93
2018-01-21T10:32:06.335Z,11.30
2018-01-21T10:37:10.214Z,10.73
2018-01-21T10:42:14.436Z,9.93
2018-01-21T10:47:18.882Z,9.87
2018-01-21T10:52:22.369Z,10.50
2018-01-21T10:57:26.808Z,9.87
2018-01-21T11:02:31.244Z,9.87
2018-01-21T11:07:35.671Z,9.70
2018-01-21T11:12:40.250Z,8.83
2018-01-21T11:17:44.687Z,8.27
2018-01-21T11:22:49.127Z,10.20
2018-01-21T11:27:53.348Z,9.53
2018-01-21T11:32:56.431Z,10.60
2018-01-21T11:37:59.514Z,10.10
2018-01-21T11:43:02.614Z,8.75
2018-01-21T11:48:07.205Z,8.93
2018-01-21T11:53:11.652Z,7.53
2018-01-21T11:58:14.724Z,6.00
2018-01-21T12:03:19.156Z,5.03
2018-01-21T12:08:23.615Z,5.83
2018-01-21T12:13:26.688Z,5.97
2018-01-21T12:18:31.116Z,7.57
2018-01-21T12:23:37.047Z,7.40
2018-01-21T12:28:40.525Z,8.30
2018-01-21T12:33:43.613Z,8.05
2018-01-21T12:38:47.078Z,5.40
2018-01-21T12:43:50.549Z,5.70
2018-01-21T12:48:54.038Z,12.45
2018-01-21T12:53:58.627Z,10.40
2018-01-21T12:59:01.712Z,8.10
2018-01-21T13:04:05.561Z,8.37
2018-01-21T13:09:09.788Z,8.40
2018-01-21T13:14:12.889Z,7.17
2018-01-21T13:19:18.944Z,7.40
2018-01-21T13:24:23.369Z,8.77
2018-01-21T13:29:27.808Z,7.33
2018-01-21T13:34:30.894Z,7.40
2018-01-21T13:39:33.982Z,4.83
2018-01-21T13:44:37.052Z,6.70
2018-01-21T13:49:41.476Z,6.40
2018-01-21T13:54:44.956Z,7.27
2018-01-21T13:59:48.035Z,7.20
2018-01-21T14:04:52.469Z,7.13
2018-01-21T14:09:57.048Z,5.37
2018-01-21T14:15:00.536Z,6.57
2018-01-21T14:20:04.967Z,5.63
2018-01-21T14:25:08.041Z,5.47
2018-01-21T14:30:12.283Z,4.37
2018-01-21T14:35:15.368Z,4.60
2018-01-21T14:40:19.796Z,4.10
2018-01-21T14:45:23.644Z,5.07
2018-01-21T14:50:28.078Z,5.30
2018-01-21T14:55:31.937Z,5.03
2018-01-21T15:00:35.419Z,5.47
2018-01-21T15:05:39.859Z,4.83
2018-01-21T15:10:44.444Z,4.73
2018-01-21T15:15:48.284Z,4.73
2018-01-21T15:20:52.128Z,5.07
2018-01-21T15:25:55.193Z,4.77
2018-01-21T15:30:58.281Z,5.50
2018-01-21T15:36:02.515Z,5.70
2018-01-21T15:41:06.368Z,6.10
2018-01-21T15:46:10.807Z,5.70
2018-01-21T15:51:14.653Z,4.83
2018-01-21T15:56:17.743Z,4.90
2018-01-21T16:01:20.840Z,5.30
2018-01-21T16:06:25.056Z,5.90
2018-01-21T16:11:28.922Z,5.93
2018-01-21T16:16:33.146Z,6.53
2018-01-21T16:21:36.235Z,7.60
2018-01-21T16:26:39.728Z,7.43
2018-01-21T16:31:43.591Z,6.57
2018-01-21T16:36:46.686Z,6.47
2018-01-21T16:41:51.115Z,6.10
2018-01-21T16:46:55.703Z,7.37
2018-01-21T16:51:58.775Z,9.60
2018-01-21T16:57:01.863Z,7.57
2018-01-21T17:02:06.087Z,5.90
2018-01-21T17:07:09.162Z,5.07
2018-01-21T17:12:13.751Z,5.20
2018-01-21T17:17:17.277Z,4.70
2018-01-21T17:22:20.713Z,4.97
2018-01-21T17:27:24.924Z,5.15
2018-01-21T17:32:28.024Z,5.53
2018-01-21T17:37:31.861Z,4.77
2018-01-21T17:42:36.294Z,4.87
2018-01-21T17:47:40.875Z,5.97
2018-01-21T17:52:45.097Z,5.90
2018-01-21T17:57:48.166Z,5.90
2018-01-21T18:02:52.003Z,5.83
2018-01-21T18:07:55.840Z,4.63
2018-01-21T18:12:58.925Z,4.65
2018-01-21T18:18:03.342Z,4.27
2018-01-21T18:23:07.953Z,4.20
2018-01-21T18:28:11.032Z,4.33
2018-01-21T18:33:14.120Z,4.47
2018-01-21T18:38:18.324Z,4.57
2018-01-21T18:43:22.196Z,4.83
2018-01-21T18:48:26.787Z,4.80
2018-01-21T18:53:31.210Z,5.25
2018-01-21T18:58:34.288Z,5.77
2018-01-21T19:03:38.136Z,6.47
2018-01-21T19:08:41.373Z,5.50
2018-01-21T19:13:45.211Z,6.10
2018-01-21T19:18:48.288Z,5.90
2018-01-21T19:23:51.395Z,6.07
2018-01-21T19:28:55.697Z,6.00
2018-01-21T19:33:58.781Z,6.07
2018-01-21T19:39:07.933Z,5.90
2018-01-21T19:44:13.447Z,5.65
2018-01-21T19:49:17.291Z,5.70
2018-01-21T19:54:21.287Z,6.37
2018-01-21T19:59:25.928Z,6.43
2018-01-21T20:04:30.515Z,6.30
2018-01-21T20:09:33.903Z,6.60
2018-01-21T20:14:39.447Z,7.60
2018-01-21T20:19:42.540Z,8.03
2018-01-21T20:24:45.620Z,7.72
2018-01-21T20:29:48.699Z,7.35
2018-01-21T20:34:52.592Z,8.82
2018-01-21T20:39:55.664Z,7.15
2018-01-21T20:44:59.518Z,7.00
2018-01-21T20:50:02.600Z,6.83
2018-01-21T20:55:06.440Z,7.10
2018-01-21T21:00:09.536Z,8.97
2018-01-21T21:05:13.961Z,8.57
2018-01-21T21:10:17.811Z,9.20
2018-01-21T21:15:22.243Z,8.60
2018-01-21T21:20:26.363Z,8.70
2018-01-21T21:25:29.436Z,8.27
2018-01-21T21:30:33.857Z,7.80
2018-01-21T21:35:37.711Z,7.43
2018-01-21T21:40:41.579Z,8.10
2018-01-21T21:45:45.799Z,6.77
2018-01-21T21:50:49.639Z,7.20
2018-01-21T21:55:52.725Z,6.00
2018-01-21T22:00:56.197Z,6.83
2018-01-21T22:06:00.029Z,6.50
2018-01-21T22:11:03.867Z,7.03
2018-01-21T22:16:08.076Z,6.93
2018-01-21T22:21:11.916Z,7.43
2018-01-21T22:26:14.987Z,8.17
2018-01-21T22:31:18.067Z,8.10
2018-01-21T22:36:21.527Z,8.10
2018-01-21T22:41:25.355Z,8.20
2018-01-21T22:46:29.195Z,9.73
2018-01-21T22:51:32.274Z,10.07
2018-01-21T22:56:35.356Z,9.90
2018-01-21T23:01:39.195Z,10.70
2018-01-21T23:06:42.282Z,10.37
2018-01-21T23:11:45.751Z,11.07
2018-01-21T23:16:49.601Z,11.37
2018-01-21T23:21:54.184Z,11.93
2018-01-21T23:26:57.267Z,12.00
2018-01-21T23:32:01.496Z,12.80
2018-01-21T23:37:05.947Z,11.23
2018-01-21T23:42:09.432Z,11.33
2018-01-21T23:47:13.656Z,11.80
2018-01-21T23:52:17.519Z,11.13
2018-01-21T23:57:21.003Z,11.40
